Ansonia, Connecticut
Current Conditions -  °F | °C
As of 12:35 AM on Thursday 27 Nov 2014 (Local Time) from KOXC Reporting Station
Overcast Overcast  
Wind Chill: 23°   Ceiling: 5500
Heat Index: 32°   Visibility: 9mi
Dew Point: 27°   Wind: 13mph
Humidity: 80%   Direction: 350°N
Pressure: 29.78"   Gusts: 17mph
Location:  41.34°N, 73.08°W
Report Text: KOXC 270535Z 35011G15KT 9SM FEW021 SCT039 OVC055 00/M03 A2978 RMK AO1
Loading
Personal Weather Stations






























Interactive Weather Map New forecast layout! Learn more

10-Day Weather Forecast

Advertisements
Track Severe Weather on mobile